sensor_id;sensor_type;location;lat;lon;timestamp;P1;durP1;ratioP1;P2;durP2;ratioP2
46597;SDS011;32318;48.858;8.252;2023-04-29T00:07:42;5.10;;;2.47;;
46597;SDS011;32318;48.858;8.252;2023-04-29T00:15:42;8.32;;;2.00;;
46597;SDS011;32318;48.858;8.252;2023-04-29T00:23:43;7.07;;;2.58;;
46597;SDS011;32318;48.858;8.252;2023-04-29T00:31:43;5.15;;;2.50;;
46597;SDS011;32318;48.858;8.252;2023-04-29T00:39:44;5.30;;;2.60;;
46597;SDS011;32318;48.858;8.252;2023-04-29T00:47:44;4.20;;;2.45;;
46597;SDS011;32318;48.858;8.252;2023-04-29T00:55:45;6.07;;;2.85;;
46597;SDS011;32318;48.858;8.252;2023-04-29T01:03:46;4.47;;;2.33;;
46597;SDS011;32318;48.858;8.252;2023-04-29T01:20:25;5.57;;;2.88;;
46597;SDS011;32318;48.858;8.252;2023-04-29T01:29:19;5.47;;;3.03;;
46597;SDS011;32318;48.858;8.252;2023-04-29T01:36:59;6.43;;;2.97;;
46597;SDS011;32318;48.858;8.252;2023-04-29T01:45:22;8.13;;;3.50;;
46597;SDS011;32318;48.858;8.252;2023-04-29T01:53:23;6.60;;;3.40;;
46597;SDS011;32318;48.858;8.252;2023-04-29T02:01:23;5.18;;;3.10;;
46597;SDS011;32318;48.858;8.252;2023-04-29T02:09:23;5.80;;;3.60;;
46597;SDS011;32318;48.858;8.252;2023-04-29T02:17:23;7.13;;;3.45;;
46597;SDS011;32318;48.858;8.252;2023-04-29T02:25:24;5.78;;;3.40;;
46597;SDS011;32318;48.858;8.252;2023-04-29T02:33:24;5.60;;;3.17;;
46597;SDS011;32318;48.858;8.252;2023-04-29T02:41:24;10.13;;;3.58;;
46597;SDS011;32318;48.858;8.252;2023-04-29T02:49:25;6.53;;;3.17;;
46597;SDS011;32318;48.858;8.252;2023-04-29T02:57:25;7.93;;;3.33;;
46597;SDS011;32318;48.858;8.252;2023-04-29T03:05:25;9.73;;;4.18;;
46597;SDS011;32318;48.858;8.252;2023-04-29T03:13:26;6.68;;;3.20;;
46597;SDS011;32318;48.858;8.252;2023-04-29T03:21:26;6.80;;;3.10;;
46597;SDS011;32318;48.858;8.252;2023-04-29T03:29:29;7.15;;;3.13;;
46597;SDS011;32318;48.858;8.252;2023-04-29T03:37:32;7.25;;;3.33;;
46597;SDS011;32318;48.858;8.252;2023-04-29T03:45:32;6.28;;;3.15;;
46597;SDS011;32318;48.858;8.252;2023-04-29T03:53:32;13.55;;;2.90;;
46597;SDS011;32318;48.858;8.252;2023-04-29T04:01:32;6.43;;;2.63;;
46597;SDS011;32318;48.858;8.252;2023-04-29T04:09:33;5.78;;;3.22;;
46597;SDS011;32318;48.858;8.252;2023-04-29T04:17:33;5.82;;;2.90;;
46597;SDS011;32318;48.858;8.252;2023-04-29T04:25:33;6.03;;;2.97;;
46597;SDS011;32318;48.858;8.252;2023-04-29T04:33:33;8.75;;;2.92;;
46597;SDS011;32318;48.858;8.252;2023-04-29T04:41:34;4.68;;;2.90;;
46597;SDS011;32318;48.858;8.252;2023-04-29T04:49:34;4.88;;;2.70;;
46597;SDS011;32318;48.858;8.252;2023-04-29T04:57:34;8.60;;;2.70;;
46597;SDS011;32318;48.858;8.252;2023-04-29T05:05:35;7.10;;;3.28;;
46597;SDS011;32318;48.858;8.252;2023-04-29T05:13:35;5.65;;;2.55;;
46597;SDS011;32318;48.858;8.252;2023-04-29T05:21:35;3.67;;;2.28;;
46597;SDS011;32318;48.858;8.252;2023-04-29T05:29:35;3.78;;;2.20;;
46597;SDS011;32318;48.858;8.252;2023-04-29T05:37:37;11.73;;;2.35;;
46597;SDS011;32318;48.858;8.252;2023-04-29T05:45:37;4.10;;;2.60;;
46597;SDS011;32318;48.858;8.252;2023-04-29T05:53:37;4.85;;;2.20;;
46597;SDS011;32318;48.858;8.252;2023-04-29T06:01:39;6.38;;;2.97;;
46597;SDS011;32318;48.858;8.252;2023-04-29T06:09:39;5.90;;;2.60;;
46597;SDS011;32318;48.858;8.252;2023-04-29T06:17:41;5.63;;;2.50;;
46597;SDS011;32318;48.858;8.252;2023-04-29T06:25:42;3.42;;;2.20;;
46597;SDS011;32318;48.858;8.252;2023-04-29T06:33:42;8.95;;;2.55;;
46597;SDS011;32318;48.858;8.252;2023-04-29T06:41:42;5.03;;;2.58;;
46597;SDS011;32318;48.858;8.252;2023-04-29T06:49:42;7.90;;;2.90;;
46597;SDS011;32318;48.858;8.252;2023-04-29T06:57:43;4.47;;;2.40;;
46597;SDS011;32318;48.858;8.252;2023-04-29T07:05:43;7.47;;;2.95;;
46597;SDS011;32318;48.858;8.252;2023-04-29T07:13:46;6.78;;;3.10;;
46597;SDS011;32318;48.858;8.252;2023-04-29T07:21:47;6.85;;;3.50;;
46597;SDS011;32318;48.858;8.252;2023-04-29T07:29:47;10.25;;;3.42;;
46597;SDS011;32318;48.858;8.252;2023-04-29T07:37:47;8.45;;;2.65;;
46597;SDS011;32318;48.858;8.252;2023-04-29T07:45:48;6.00;;;2.90;;
46597;SDS011;32318;48.858;8.252;2023-04-29T07:53:48;5.53;;;3.00;;
46597;SDS011;32318;48.858;8.252;2023-04-29T08:01:48;4.38;;;2.67;;
46597;SDS011;32318;48.858;8.252;2023-04-29T08:09:48;4.43;;;2.83;;
46597;SDS011;32318;48.858;8.252;2023-04-29T08:17:49;6.28;;;2.85;;
46597;SDS011;32318;48.858;8.252;2023-04-29T08:25:49;8.60;;;2.60;;
46597;SDS011;32318;48.858;8.252;2023-04-29T08:33:51;9.52;;;3.00;;
46597;SDS011;32318;48.858;8.252;2023-04-29T08:41:51;8.60;;;3.20;;
46597;SDS011;32318;48.858;8.252;2023-04-29T08:49:53;5.65;;;3.05;;
46597;SDS011;32318;48.858;8.252;2023-04-29T08:57:53;5.95;;;3.20;;
46597;SDS011;32318;48.858;8.252;2023-04-29T09:05:55;5.00;;;2.67;;
46597;SDS011;32318;48.858;8.252;2023-04-29T09:14:01;7.40;;;3.70;;
46597;SDS011;32318;48.858;8.252;2023-04-29T09:22:03;10.65;;;3.42;;
46597;SDS011;32318;48.858;8.252;2023-04-29T09:30:07;12.95;;;3.45;;
46597;SDS011;32318;48.858;8.252;2023-04-29T09:38:12;6.55;;;3.67;;
46597;SDS011;32318;48.858;8.252;2023-04-29T09:46:13;9.48;;;3.72;;
46597;SDS011;32318;48.858;8.252;2023-04-29T09:54:21;5.57;;;3.30;;
46597;SDS011;32318;48.858;8.252;2023-04-29T10:02:23;7.40;;;3.20;;
46597;SDS011;32318;48.858;8.252;2023-04-29T10:10:24;6.03;;;3.22;;
46597;SDS011;32318;48.858;8.252;2023-04-29T10:18:33;6.70;;;3.42;;
46597;SDS011;32318;48.858;8.252;2023-04-29T10:26:38;10.27;;;3.72;;
46597;SDS011;32318;48.858;8.252;2023-04-29T10:34:40;6.68;;;3.30;;
46597;SDS011;32318;48.858;8.252;2023-04-29T10:58:46;9.90;;;3.33;;
46597;SDS011;32318;48.858;8.252;2023-04-29T11:06:50;6.60;;;3.28;;
46597;SDS011;32318;48.858;8.252;2023-04-29T11:14:52;4.72;;;2.70;;
46597;SDS011;32318;48.858;8.252;2023-04-29T11:22:53;9.80;;;2.88;;
46597;SDS011;32318;48.858;8.252;2023-04-29T11:30:54;5.55;;;2.92;;
46597;SDS011;32318;48.858;8.252;2023-04-29T11:38:56;10.60;;;3.47;;
46597;SDS011;32318;48.858;8.252;2023-04-29T11:47:03;9.13;;;4.68;;
46597;SDS011;32318;48.858;8.252;2023-04-29T11:55:04;12.43;;;5.85;;
46597;SDS011;32318;48.858;8.252;2023-04-29T12:03:17;14.73;;;6.05;;
46597;SDS011;32318;48.858;8.252;2023-04-29T12:11:19;17.60;;;6.22;;
46597;SDS011;32318;48.858;8.252;2023-04-29T12:19:23;14.65;;;6.72;;
46597;SDS011;32318;48.858;8.252;2023-04-29T12:27:24;13.40;;;6.53;;
46597;SDS011;32318;48.858;8.252;2023-04-29T12:35:25;14.63;;;6.32;;
46597;SDS011;32318;48.858;8.252;2023-04-29T12:51:27;17.15;;;6.30;;
46597;SDS011;32318;48.858;8.252;2023-04-29T12:59:27;12.40;;;6.03;;
46597;SDS011;32318;48.858;8.252;2023-04-29T13:07:27;12.80;;;5.63;;
46597;SDS011;32318;48.858;8.252;2023-04-29T13:15:28;11.90;;;5.75;;
46597;SDS011;32318;48.858;8.252;2023-04-29T13:23:28;13.50;;;5.80;;
46597;SDS011;32318;48.858;8.252;2023-04-29T13:31:28;14.45;;;5.22;;
46597;SDS011;32318;48.858;8.252;2023-04-29T13:39:29;11.57;;;5.93;;
46597;SDS011;32318;48.858;8.252;2023-04-29T13:47:29;10.05;;;5.15;;
46597;SDS011;32318;48.858;8.252;2023-04-29T13:55:29;16.75;;;6.45;;
46597;SDS011;32318;48.858;8.252;2023-04-29T14:03:30;12.10;;;5.82;;
46597;SDS011;32318;48.858;8.252;2023-04-29T14:11:30;14.75;;;5.78;;
46597;SDS011;32318;48.858;8.252;2023-04-29T14:19:35;26.55;;;5.38;;
46597;SDS011;32318;48.858;8.252;2023-04-29T14:27:35;7.82;;;4.57;;
46597;SDS011;32318;48.858;8.252;2023-04-29T14:35:35;10.73;;;5.43;;
46597;SDS011;32318;48.858;8.252;2023-04-29T14:43:36;10.07;;;5.50;;
46597;SDS011;32318;48.858;8.252;2023-04-29T14:51:36;13.88;;;6.22;;
46597;SDS011;32318;48.858;8.252;2023-04-29T14:59:36;13.20;;;5.80;;
46597;SDS011;32318;48.858;8.252;2023-04-29T15:07:42;12.07;;;6.25;;
46597;SDS011;32318;48.858;8.252;2023-04-29T15:15:42;13.88;;;6.18;;
46597;SDS011;32318;48.858;8.252;2023-04-29T15:23:42;9.65;;;6.00;;
46597;SDS011;32318;48.858;8.252;2023-04-29T15:31:43;12.23;;;5.90;;
46597;SDS011;32318;48.858;8.252;2023-04-29T15:39:43;7.22;;;4.15;;
46597;SDS011;32318;48.858;8.252;2023-04-29T15:47:44;11.18;;;4.45;;
46597;SDS011;32318;48.858;8.252;2023-04-29T15:55:46;8.52;;;4.35;;
46597;SDS011;32318;48.858;8.252;2023-04-29T16:03:46;11.50;;;5.00;;
46597;SDS011;32318;48.858;8.252;2023-04-29T16:11:46;8.27;;;4.60;;
46597;SDS011;32318;48.858;8.252;2023-04-29T16:19:46;9.32;;;4.57;;
46597;SDS011;32318;48.858;8.252;2023-04-29T16:27:47;12.77;;;4.90;;
46597;SDS011;32318;48.858;8.252;2023-04-29T16:35:47;12.05;;;4.25;;
46597;SDS011;32318;48.858;8.252;2023-04-29T16:43:48;10.20;;;4.95;;
46597;SDS011;32318;48.858;8.252;2023-04-29T16:51:48;8.77;;;4.40;;
46597;SDS011;32318;48.858;8.252;2023-04-29T16:59:49;9.77;;;5.15;;
46597;SDS011;32318;48.858;8.252;2023-04-29T17:07:49;9.13;;;4.32;;
46597;SDS011;32318;48.858;8.252;2023-04-29T17:15:49;13.98;;;5.55;;
46597;SDS011;32318;48.858;8.252;2023-04-29T17:23:50;21.60;;;7.82;;
46597;SDS011;32318;48.858;8.252;2023-04-29T17:31:52;12.65;;;5.55;;
46597;SDS011;32318;48.858;8.252;2023-04-29T17:39:58;13.25;;;5.53;;
46597;SDS011;32318;48.858;8.252;2023-04-29T17:47:59;9.75;;;5.40;;
46597;SDS011;32318;48.858;8.252;2023-04-29T17:55:59;9.48;;;5.30;;
46597;SDS011;32318;48.858;8.252;2023-04-29T18:03:59;11.30;;;5.30;;
46597;SDS011;32318;48.858;8.252;2023-04-29T18:12:00;12.45;;;6.00;;
46597;SDS011;32318;48.858;8.252;2023-04-29T18:20:01;10.48;;;5.88;;
46597;SDS011;32318;48.858;8.252;2023-04-29T18:28:01;13.20;;;5.68;;
46597;SDS011;32318;48.858;8.252;2023-04-29T18:36:04;9.30;;;5.10;;
46597;SDS011;32318;48.858;8.252;2023-04-29T18:44:04;11.48;;;6.10;;
46597;SDS011;32318;48.858;8.252;2023-04-29T18:52:05;14.13;;;6.35;;
46597;SDS011;32318;48.858;8.252;2023-04-29T19:00:05;12.68;;;5.90;;
46597;SDS011;32318;48.858;8.252;2023-04-29T19:08:06;12.02;;;6.05;;
46597;SDS011;32318;48.858;8.252;2023-04-29T19:16:07;13.43;;;6.57;;
46597;SDS011;32318;48.858;8.252;2023-04-29T19:24:07;10.48;;;5.63;;
46597;SDS011;32318;48.858;8.252;2023-04-29T19:32:07;12.57;;;5.75;;
46597;SDS011;32318;48.858;8.252;2023-04-29T19:40:08;16.00;;;5.75;;
46597;SDS011;32318;48.858;8.252;2023-04-29T19:48:09;12.20;;;6.65;;
46597;SDS011;32318;48.858;8.252;2023-04-29T19:56:10;12.90;;;6.47;;
46597;SDS011;32318;48.858;8.252;2023-04-29T20:04:10;12.15;;;5.05;;
46597;SDS011;32318;48.858;8.252;2023-04-29T20:12:10;12.00;;;5.38;;
46597;SDS011;32318;48.858;8.252;2023-04-29T20:20:11;15.68;;;5.22;;
46597;SDS011;32318;48.858;8.252;2023-04-29T20:28:11;8.93;;;5.32;;
46597;SDS011;32318;48.858;8.252;2023-04-29T20:36:11;11.18;;;6.50;;
46597;SDS011;32318;48.858;8.252;2023-04-29T20:44:12;15.68;;;7.38;;
46597;SDS011;32318;48.858;8.252;2023-04-29T20:52:12;14.00;;;7.95;;
46597;SDS011;32318;48.858;8.252;2023-04-29T21:00:12;19.60;;;8.50;;
46597;SDS011;32318;48.858;8.252;2023-04-29T21:08:13;20.92;;;9.30;;
46597;SDS011;32318;48.858;8.252;2023-04-29T21:16:17;19.67;;;9.48;;
46597;SDS011;32318;48.858;8.252;2023-04-29T21:24:18;21.92;;;10.13;;
46597;SDS011;32318;48.858;8.252;2023-04-29T21:32:18;23.17;;;9.75;;
46597;SDS011;32318;48.858;8.252;2023-04-29T21:40:20;21.58;;;11.35;;
46597;SDS011;32318;48.858;8.252;2023-04-29T21:48:21;20.88;;;10.73;;
46597;SDS011;32318;48.858;8.252;2023-04-29T21:56:24;24.17;;;12.20;;
46597;SDS011;32318;48.858;8.252;2023-04-29T22:04:24;24.77;;;12.07;;
46597;SDS011;32318;48.858;8.252;2023-04-29T22:12:28;23.58;;;12.25;;
46597;SDS011;32318;48.858;8.252;2023-04-29T22:20:28;23.70;;;12.95;;
46597;SDS011;32318;48.858;8.252;2023-04-29T22:28:29;29.02;;;13.10;;
46597;SDS011;32318;48.858;8.252;2023-04-29T22:36:29;22.63;;;12.52;;
46597;SDS011;32318;48.858;8.252;2023-04-29T22:44:30;25.35;;;11.73;;
46597;SDS011;32318;48.858;8.252;2023-04-29T22:52:30;23.55;;;12.35;;
46597;SDS011;32318;48.858;8.252;2023-04-29T23:00:31;23.23;;;11.93;;
46597;SDS011;32318;48.858;8.252;2023-04-29T23:08:31;19.52;;;10.25;;
46597;SDS011;32318;48.858;8.252;2023-04-29T23:16:32;20.67;;;9.23;;
46597;SDS011;32318;48.858;8.252;2023-04-29T23:24:33;16.90;;;9.27;;
46597;SDS011;32318;48.858;8.252;2023-04-29T23:32:34;17.58;;;8.20;;
46597;SDS011;32318;48.858;8.252;2023-04-29T23:40:34;14.98;;;7.45;;
46597;SDS011;32318;48.858;8.252;2023-04-29T23:48:34;14.85;;;7.65;;
46597;SDS011;32318;48.858;8.252;2023-04-29T23:56:38;18.35;;;7.47;;
